This is the latest recevied weather packets stored in our database for station/object VU3HGG-15. If no packets are shown the sender has not sent any weather packets the latest 10 day(s).
| Time | Temp. | Humidity | Pressure | Rain* | Wind** | Luminosity | Snow |
|---|---|---|---|---|---|---|---|
| 1787955793 | 26.11° C | 67% | 909.9 hPa | - | - | - | - |
| 1787955194 | 26.11° C | 67% | 910 hPa | - | - | - | - |
| 1787954593 | 26.11° C | 67% | 909.9 hPa | - | - | - | - |
| 1787953994 | 26.11° C | 67% | 909.9 hPa | - | - | - | - |
| 1787953394 | 26.11° C | 67% | 910 hPa | - | - | - | - |
| 1787952794 | 26.11° C | 66% | 909.9 hPa | - | - | - | - |
| 1787952194 | 26.67° C | 66% | 910 hPa | - | - | - | - |
| 1787951594 | 26.67° C | 65% | 910 hPa | - | - | - | - |
| 1787950994 | 27.22° C | 65% | 910 hPa | - | - | - | - |
| 1787950394 | 27.22° C | 64% | 910.2 hPa | - | - | - | - |
| 1787949794 | 27.78° C | 63% | 910.3 hPa | - | - | - | - |
| 1787949194 | 27.78° C | 61% | 910.5 hPa | - | - | - | - |
| 1787948594 | 28.33° C | 62% | 910.6 hPa | - | - | - | - |
| 1787947994 | 28.33° C | 62% | 910.7 hPa | - | - | - | - |
| 1787947394 | 28.33° C | 62% | 910.9 hPa | - | - | - | - |
| 1787946794 | 28.33° C | 62% | 911 hPa | - | - | - | - |
| 1787946195 | 28.33° C | 62% | 911.2 hPa | - | - | - | - |
| 1787945594 | 29.44° C | 58% | 911.2 hPa | - | - | - | - |
| 1787944994 | 31.11° C | 55% | 911.5 hPa | - | - | - | - |
| 1787944896 | 31.11° C | 54% | 911.5 hPa | - | - | - | - |
| 1787815219 | 25.56° C | 69% | 910.8 hPa | - | - | - | - |
| 1787814617 | 25.56° C | 67% | 910.8 hPa | - | - | - | - |
| 1787813417 | 25.56° C | 66% | 911.1 hPa | - | - | - | - |
| 1787812817 | 25.56° C | 67% | 911.2 hPa | - | - | - | - |
| 1787812217 | 25.56° C | 67% | 911.3 hPa | - | - | - | - |
* Rain since midnight (hover to see other rain measurements)
** Current wind speed in m/s (hover to see current wind gust speed)